sensor_id;sensor_type;location;lat;lon;timestamp;temperature;humidity
18934;DHT22;9599;53.706;10.384;2023-08-06T00:01:59;17.40;99.90
18934;DHT22;9599;53.706;10.384;2023-08-06T00:04:27;17.40;99.90
18934;DHT22;9599;53.706;10.384;2023-08-06T00:06:56;17.30;99.90
18934;DHT22;9599;53.706;10.384;2023-08-06T00:09:24;17.30;99.90
18934;DHT22;9599;53.706;10.384;2023-08-06T00:11:52;17.20;99.90
18934;DHT22;9599;53.706;10.384;2023-08-06T00:14:20;17.20;99.90
18934;DHT22;9599;53.706;10.384;2023-08-06T00:16:48;17.20;99.90
18934;DHT22;9599;53.706;10.384;2023-08-06T00:19:16;17.20;99.90
18934;DHT22;9599;53.706;10.384;2023-08-06T00:21:44;17.20;99.90
18934;DHT22;9599;53.706;10.384;2023-08-06T00:24:14;17.20;99.90
18934;DHT22;9599;53.706;10.384;2023-08-06T00:26:42;17.20;99.90
18934;DHT22;9599;53.706;10.384;2023-08-06T00:29:10;17.20;99.90
18934;DHT22;9599;53.706;10.384;2023-08-06T00:31:38;17.20;99.90
18934;DHT22;9599;53.706;10.384;2023-08-06T00:34:06;17.20;99.90
18934;DHT22;9599;53.706;10.384;2023-08-06T00:36:35;17.20;99.90
18934;DHT22;9599;53.706;10.384;2023-08-06T00:39:03;17.20;99.90
18934;DHT22;9599;53.706;10.384;2023-08-06T00:41:32;17.20;99.90
18934;DHT22;9599;53.706;10.384;2023-08-06T00:44:00;17.20;99.90
18934;DHT22;9599;53.706;10.384;2023-08-06T00:46:29;17.20;99.90
18934;DHT22;9599;53.706;10.384;2023-08-06T00:48:57;17.20;99.90
18934;DHT22;9599;53.706;10.384;2023-08-06T00:51:25;17.20;99.90
18934;DHT22;9599;53.706;10.384;2023-08-06T00:53:54;17.20;99.90
18934;DHT22;9599;53.706;10.384;2023-08-06T00:56:24;17.20;99.90
18934;DHT22;9599;53.706;10.384;2023-08-06T00:58:54;17.20;99.90
18934;DHT22;9599;53.706;10.384;2023-08-06T01:01:22;17.20;99.90
18934;DHT22;9599;53.706;10.384;2023-08-06T01:03:51;17.20;99.90
18934;DHT22;9599;53.706;10.384;2023-08-06T01:06:23;17.20;99.90
18934;DHT22;9599;53.706;10.384;2023-08-06T01:09:01;17.10;99.90
18934;DHT22;9599;53.706;10.384;2023-08-06T01:11:40;17.00;99.90
18934;DHT22;9599;53.706;10.384;2023-08-06T01:14:15;16.90;99.90
18934;DHT22;9599;53.706;10.384;2023-08-06T01:16:47;16.80;99.90
18934;DHT22;9599;53.706;10.384;2023-08-06T01:19:16;16.80;99.90
18934;DHT22;9599;53.706;10.384;2023-08-06T01:21:46;16.70;99.90
18934;DHT22;9599;53.706;10.384;2023-08-06T01:24:14;16.70;99.90
18934;DHT22;9599;53.706;10.384;2023-08-06T01:26:48;16.60;99.90
18934;DHT22;9599;53.706;10.384;2023-08-06T01:29:24;16.60;99.90
18934;DHT22;9599;53.706;10.384;2023-08-06T01:31:53;16.60;99.90
18934;DHT22;9599;53.706;10.384;2023-08-06T01:34:24;16.60;99.90
18934;DHT22;9599;53.706;10.384;2023-08-06T01:36:55;16.60;99.90
18934;DHT22;9599;53.706;10.384;2023-08-06T01:39:24;16.70;99.90
18934;DHT22;9599;53.706;10.384;2023-08-06T01:41:52;16.60;99.90
18934;DHT22;9599;53.706;10.384;2023-08-06T01:44:20;16.70;99.90
18934;DHT22;9599;53.706;10.384;2023-08-06T01:46:48;16.60;99.90
18934;DHT22;9599;53.706;10.384;2023-08-06T01:49:16;16.60;99.90
18934;DHT22;9599;53.706;10.384;2023-08-06T01:51:44;16.60;99.90
18934;DHT22;9599;53.706;10.384;2023-08-06T01:54:14;16.60;99.90
18934;DHT22;9599;53.706;10.384;2023-08-06T01:56:42;16.60;99.90
18934;DHT22;9599;53.706;10.384;2023-08-06T01:59:10;16.40;99.90
18934;DHT22;9599;53.706;10.384;2023-08-06T02:01:38;16.40;99.90
18934;DHT22;9599;53.706;10.384;2023-08-06T02:04:08;16.40;99.90
18934;DHT22;9599;53.706;10.384;2023-08-06T02:06:36;16.40;99.90
18934;DHT22;9599;53.706;10.384;2023-08-06T02:09:04;16.40;99.90
18934;DHT22;9599;53.706;10.384;2023-08-06T02:11:33;16.30;99.90
18934;DHT22;9599;53.706;10.384;2023-08-06T02:14:01;16.40;99.90
18934;DHT22;9599;53.706;10.384;2023-08-06T02:16:29;16.30;99.90
18934;DHT22;9599;53.706;10.384;2023-08-06T02:18:57;16.40;99.90
18934;DHT22;9599;53.706;10.384;2023-08-06T02:21:25;16.40;99.90
18934;DHT22;9599;53.706;10.384;2023-08-06T02:23:54;16.40;99.90
18934;DHT22;9599;53.706;10.384;2023-08-06T02:26:21;16.40;99.90
18934;DHT22;9599;53.706;10.384;2023-08-06T02:28:51;16.50;99.90
18934;DHT22;9599;53.706;10.384;2023-08-06T02:31:19;16.40;99.90
18934;DHT22;9599;53.706;10.384;2023-08-06T02:33:47;16.50;99.90
18934;DHT22;9599;53.706;10.384;2023-08-06T02:36:15;16.40;99.90
18934;DHT22;9599;53.706;10.384;2023-08-06T02:38:43;16.30;99.90
18934;DHT22;9599;53.706;10.384;2023-08-06T02:41:11;16.30;99.90
18934;DHT22;9599;53.706;10.384;2023-08-06T02:43:40;16.30;99.90
18934;DHT22;9599;53.706;10.384;2023-08-06T02:46:09;16.30;99.90
18934;DHT22;9599;53.706;10.384;2023-08-06T02:48:38;16.20;99.90
18934;DHT22;9599;53.706;10.384;2023-08-06T02:51:06;16.20;99.90
18934;DHT22;9599;53.706;10.384;2023-08-06T02:53:34;16.20;99.90
18934;DHT22;9599;53.706;10.384;2023-08-06T02:56:06;16.30;99.90
18934;DHT22;9599;53.706;10.384;2023-08-06T02:58:49;16.20;99.90
18934;DHT22;9599;53.706;10.384;2023-08-06T03:01:31;16.30;99.90
18934;DHT22;9599;53.706;10.384;2023-08-06T03:04:06;16.30;99.90
18934;DHT22;9599;53.706;10.384;2023-08-06T03:06:39;16.30;99.90
18934;DHT22;9599;53.706;10.384;2023-08-06T03:09:08;16.30;99.90
18934;DHT22;9599;53.706;10.384;2023-08-06T03:11:36;16.30;99.90
18934;DHT22;9599;53.706;10.384;2023-08-06T03:14:09;16.30;99.90
18934;DHT22;9599;53.706;10.384;2023-08-06T03:16:39;16.30;99.90
18934;DHT22;9599;53.706;10.384;2023-08-06T03:19:07;16.30;99.90
18934;DHT22;9599;53.706;10.384;2023-08-06T03:21:35;16.30;99.90
18934;DHT22;9599;53.706;10.384;2023-08-06T03:24:04;16.30;99.90
18934;DHT22;9599;53.706;10.384;2023-08-06T03:26:34;16.20;99.90
18934;DHT22;9599;53.706;10.384;2023-08-06T03:29:03;16.20;99.90
18934;DHT22;9599;53.706;10.384;2023-08-06T03:31:33;16.20;99.90
18934;DHT22;9599;53.706;10.384;2023-08-06T03:34:04;16.20;99.90
18934;DHT22;9599;53.706;10.384;2023-08-06T03:36:32;16.20;99.90
18934;DHT22;9599;53.706;10.384;2023-08-06T03:39:01;16.20;99.90
18934;DHT22;9599;53.706;10.384;2023-08-06T03:41:31;16.20;99.90
18934;DHT22;9599;53.706;10.384;2023-08-06T03:44:00;16.30;99.90
18934;DHT22;9599;53.706;10.384;2023-08-06T03:46:29;16.30;99.90
18934;DHT22;9599;53.706;10.384;2023-08-06T03:49:06;16.30;99.90
18934;DHT22;9599;53.706;10.384;2023-08-06T03:51:34;16.30;99.90
18934;DHT22;9599;53.706;10.384;2023-08-06T03:54:02;16.30;99.90
18934;DHT22;9599;53.706;10.384;2023-08-06T03:56:30;16.30;99.90
18934;DHT22;9599;53.706;10.384;2023-08-06T03:58:59;16.30;99.90
18934;DHT22;9599;53.706;10.384;2023-08-06T04:01:28;16.30;99.90
18934;DHT22;9599;53.706;10.384;2023-08-06T04:03:56;16.30;99.90
18934;DHT22;9599;53.706;10.384;2023-08-06T04:06:25;16.30;99.90
18934;DHT22;9599;53.706;10.384;2023-08-06T04:08:53;16.30;99.90
18934;DHT22;9599;53.706;10.384;2023-08-06T04:11:21;16.30;99.90
18934;DHT22;9599;53.706;10.384;2023-08-06T04:13:49;16.30;99.90
18934;DHT22;9599;53.706;10.384;2023-08-06T04:16:17;16.30;99.90
18934;DHT22;9599;53.706;10.384;2023-08-06T04:18:46;16.30;99.90
18934;DHT22;9599;53.706;10.384;2023-08-06T04:21:15;16.30;99.90
18934;DHT22;9599;53.706;10.384;2023-08-06T04:23:44;16.30;99.90
18934;DHT22;9599;53.706;10.384;2023-08-06T04:26:13;16.30;99.90
18934;DHT22;9599;53.706;10.384;2023-08-06T04:28:41;16.30;99.90
18934;DHT22;9599;53.706;10.384;2023-08-06T04:31:09;16.30;99.90
18934;DHT22;9599;53.706;10.384;2023-08-06T04:33:40;16.30;99.90
18934;DHT22;9599;53.706;10.384;2023-08-06T04:36:11;16.30;99.90
18934;DHT22;9599;53.706;10.384;2023-08-06T04:38:40;16.40;99.90
18934;DHT22;9599;53.706;10.384;2023-08-06T04:41:14;16.30;99.90
18934;DHT22;9599;53.706;10.384;2023-08-06T04:43:42;16.40;99.90
18934;DHT22;9599;53.706;10.384;2023-08-06T04:46:11;16.40;99.90
18934;DHT22;9599;53.706;10.384;2023-08-06T04:48:39;16.40;99.90
18934;DHT22;9599;53.706;10.384;2023-08-06T04:51:07;16.40;99.90
18934;DHT22;9599;53.706;10.384;2023-08-06T04:53:35;16.40;99.90
18934;DHT22;9599;53.706;10.384;2023-08-06T04:56:04;16.40;99.90
18934;DHT22;9599;53.706;10.384;2023-08-06T04:58:33;16.40;99.90
18934;DHT22;9599;53.706;10.384;2023-08-06T05:01:04;16.40;99.90
18934;DHT22;9599;53.706;10.384;2023-08-06T05:03:32;16.50;99.90
18934;DHT22;9599;53.706;10.384;2023-08-06T05:06:00;16.50;99.90
18934;DHT22;9599;53.706;10.384;2023-08-06T05:08:28;16.40;99.90
18934;DHT22;9599;53.706;10.384;2023-08-06T05:10:56;16.50;99.90
18934;DHT22;9599;53.706;10.384;2023-08-06T05:13:24;16.50;99.90
18934;DHT22;9599;53.706;10.384;2023-08-06T05:15:54;16.50;99.90
18934;DHT22;9599;53.706;10.384;2023-08-06T05:18:22;16.60;99.90
18934;DHT22;9599;53.706;10.384;2023-08-06T05:20:50;16.60;99.90
18934;DHT22;9599;53.706;10.384;2023-08-06T05:23:19;16.60;99.90
18934;DHT22;9599;53.706;10.384;2023-08-06T05:25:47;16.60;99.90
18934;DHT22;9599;53.706;10.384;2023-08-06T05:28:14;16.70;99.90
18934;DHT22;9599;53.706;10.384;2023-08-06T05:30:42;16.70;99.90
18934;DHT22;9599;53.706;10.384;2023-08-06T05:33:12;16.70;99.90
18934;DHT22;9599;53.706;10.384;2023-08-06T05:35:41;16.70;99.90
18934;DHT22;9599;53.706;10.384;2023-08-06T05:38:09;16.70;99.90
18934;DHT22;9599;53.706;10.384;2023-08-06T05:40:37;16.70;99.90
18934;DHT22;9599;53.706;10.384;2023-08-06T05:43:05;16.70;99.90
18934;DHT22;9599;53.706;10.384;2023-08-06T05:45:33;16.70;99.90
18934;DHT22;9599;53.706;10.384;2023-08-06T05:48:01;16.80;99.90
18934;DHT22;9599;53.706;10.384;2023-08-06T05:50:30;16.80;99.90
18934;DHT22;9599;53.706;10.384;2023-08-06T05:52:58;16.80;99.90
18934;DHT22;9599;53.706;10.384;2023-08-06T05:55:28;16.80;99.90
18934;DHT22;9599;53.706;10.384;2023-08-06T05:57:56;16.90;99.90
18934;DHT22;9599;53.706;10.384;2023-08-06T06:00:24;16.90;99.90
18934;DHT22;9599;53.706;10.384;2023-08-06T06:02:52;16.90;99.90
18934;DHT22;9599;53.706;10.384;2023-08-06T06:05:20;16.90;99.90
18934;DHT22;9599;53.706;10.384;2023-08-06T06:07:50;17.00;99.90
18934;DHT22;9599;53.706;10.384;2023-08-06T06:10:18;17.00;99.90
18934;DHT22;9599;53.706;10.384;2023-08-06T06:12:46;17.00;99.90
18934;DHT22;9599;53.706;10.384;2023-08-06T06:15:14;17.00;99.90
18934;DHT22;9599;53.706;10.384;2023-08-06T06:17:42;17.00;99.90
18934;DHT22;9599;53.706;10.384;2023-08-06T06:20:10;17.00;99.90
18934;DHT22;9599;53.706;10.384;2023-08-06T06:22:38;17.00;99.90
18934;DHT22;9599;53.706;10.384;2023-08-06T06:25:08;17.00;99.90
18934;DHT22;9599;53.706;10.384;2023-08-06T06:27:36;16.90;99.90
18934;DHT22;9599;53.706;10.384;2023-08-06T06:30:05;16.90;99.90
18934;DHT22;9599;53.706;10.384;2023-08-06T06:32:34;16.90;99.90
18934;DHT22;9599;53.706;10.384;2023-08-06T06:35:02;16.90;99.90
18934;DHT22;9599;53.706;10.384;2023-08-06T06:37:31;16.90;99.90
18934;DHT22;9599;53.706;10.384;2023-08-06T06:39:59;16.90;99.90
18934;DHT22;9599;53.706;10.384;2023-08-06T06:42:28;16.90;99.90
18934;DHT22;9599;53.706;10.384;2023-08-06T06:45:00;16.90;99.90
18934;DHT22;9599;53.706;10.384;2023-08-06T06:47:28;16.90;99.90
18934;DHT22;9599;53.706;10.384;2023-08-06T06:49:56;17.00;99.90
18934;DHT22;9599;53.706;10.384;2023-08-06T06:52:24;17.00;99.90
18934;DHT22;9599;53.706;10.384;2023-08-06T06:54:52;16.90;99.90
18934;DHT22;9599;53.706;10.384;2023-08-06T06:57:21;17.00;99.90
18934;DHT22;9599;53.706;10.384;2023-08-06T06:59:50;17.00;99.90
18934;DHT22;9599;53.706;10.384;2023-08-06T07:02:18;17.00;99.90
18934;DHT22;9599;53.706;10.384;2023-08-06T07:04:46;17.00;99.90
18934;DHT22;9599;53.706;10.384;2023-08-06T07:07:14;17.10;99.90
18934;DHT22;9599;53.706;10.384;2023-08-06T07:09:42;17.10;99.90
18934;DHT22;9599;53.706;10.384;2023-08-06T07:12:10;17.00;99.90
18934;DHT22;9599;53.706;10.384;2023-08-06T07:14:38;17.00;99.90
18934;DHT22;9599;53.706;10.384;2023-08-06T07:17:08;17.00;99.90
18934;DHT22;9599;53.706;10.384;2023-08-06T07:19:36;17.00;99.90
18934;DHT22;9599;53.706;10.384;2023-08-06T07:22:04;17.00;99.90
18934;DHT22;9599;53.706;10.384;2023-08-06T07:24:32;17.00;99.90
18934;DHT22;9599;53.706;10.384;2023-08-06T07:27:01;17.10;99.90
18934;DHT22;9599;53.706;10.384;2023-08-06T07:29:29;17.00;99.90
18934;DHT22;9599;53.706;10.384;2023-08-06T07:31:57;16.90;99.90
18934;DHT22;9599;53.706;10.384;2023-08-06T07:34:27;17.00;99.90
18934;DHT22;9599;53.706;10.384;2023-08-06T07:36:55;17.00;99.90
18934;DHT22;9599;53.706;10.384;2023-08-06T07:39:23;17.00;99.90
18934;DHT22;9599;53.706;10.384;2023-08-06T07:41:51;17.00;99.90
18934;DHT22;9599;53.706;10.384;2023-08-06T07:44:20;17.10;99.90
18934;DHT22;9599;53.706;10.384;2023-08-06T07:46:48;17.10;99.90
18934;DHT22;9599;53.706;10.384;2023-08-06T07:49:16;17.00;99.90
18934;DHT22;9599;53.706;10.384;2023-08-06T07:51:45;17.10;99.90
18934;DHT22;9599;53.706;10.384;2023-08-06T07:54:13;17.10;99.90
18934;DHT22;9599;53.706;10.384;2023-08-06T07:56:41;17.20;99.90
18934;DHT22;9599;53.706;10.384;2023-08-06T07:59:09;17.20;99.90
18934;DHT22;9599;53.706;10.384;2023-08-06T08:01:37;17.20;99.90
18934;DHT22;9599;53.706;10.384;2023-08-06T08:04:05;17.20;99.90
18934;DHT22;9599;53.706;10.384;2023-08-06T08:06:33;17.30;99.90
18934;DHT22;9599;53.706;10.384;2023-08-06T08:09:03;17.20;99.90
18934;DHT22;9599;53.706;10.384;2023-08-06T08:11:31;17.30;99.90
18934;DHT22;9599;53.706;10.384;2023-08-06T08:13:59;17.20;99.90
18934;DHT22;9599;53.706;10.384;2023-08-06T08:16:27;17.20;99.90
18934;DHT22;9599;53.706;10.384;2023-08-06T08:18:55;17.30;99.90
18934;DHT22;9599;53.706;10.384;2023-08-06T08:21:23;17.30;99.90
18934;DHT22;9599;53.706;10.384;2023-08-06T08:23:51;17.30;99.90
18934;DHT22;9599;53.706;10.384;2023-08-06T08:26:21;17.40;99.90
18934;DHT22;9599;53.706;10.384;2023-08-06T08:28:50;17.40;99.90
18934;DHT22;9599;53.706;10.384;2023-08-06T08:31:18;17.40;99.90
18934;DHT22;9599;53.706;10.384;2023-08-06T08:33:46;17.50;99.90
18934;DHT22;9599;53.706;10.384;2023-08-06T08:36:14;17.50;99.90
18934;DHT22;9599;53.706;10.384;2023-08-06T08:38:42;17.50;99.90
18934;DHT22;9599;53.706;10.384;2023-08-06T08:41:10;17.60;99.90
18934;DHT22;9599;53.706;10.384;2023-08-06T08:43:40;17.50;99.90
18934;DHT22;9599;53.706;10.384;2023-08-06T08:46:10;17.60;99.90
18934;DHT22;9599;53.706;10.384;2023-08-06T08:48:39;17.60;99.90
18934;DHT22;9599;53.706;10.384;2023-08-06T08:51:08;17.70;99.90
18934;DHT22;9599;53.706;10.384;2023-08-06T08:53:37;17.70;99.90
18934;DHT22;9599;53.706;10.384;2023-08-06T08:56:06;17.70;99.90
18934;DHT22;9599;53.706;10.384;2023-08-06T08:58:34;17.80;99.90
18934;DHT22;9599;53.706;10.384;2023-08-06T09:01:04;17.90;99.90
18934;DHT22;9599;53.706;10.384;2023-08-06T09:03:32;17.90;99.90
18934;DHT22;9599;53.706;10.384;2023-08-06T09:06:02;17.90;99.90
18934;DHT22;9599;53.706;10.384;2023-08-06T09:08:39;17.90;99.90
18934;DHT22;9599;53.706;10.384;2023-08-06T09:11:09;18.00;99.90
18934;DHT22;9599;53.706;10.384;2023-08-06T09:13:38;17.90;99.90
18934;DHT22;9599;53.706;10.384;2023-08-06T09:16:07;17.90;99.90
18934;DHT22;9599;53.706;10.384;2023-08-06T09:18:39;17.90;99.90
18934;DHT22;9599;53.706;10.384;2023-08-06T09:21:13;17.80;99.90
18934;DHT22;9599;53.706;10.384;2023-08-06T09:23:41;17.80;99.90
18934;DHT22;9599;53.706;10.384;2023-08-06T09:26:11;17.80;99.90
18934;DHT22;9599;53.706;10.384;2023-08-06T09:28:43;17.90;99.90
18934;DHT22;9599;53.706;10.384;2023-08-06T09:31:12;17.90;99.90
18934;DHT22;9599;53.706;10.384;2023-08-06T09:33:41;18.00;99.90
18934;DHT22;9599;53.706;10.384;2023-08-06T09:36:11;18.00;99.90
18934;DHT22;9599;53.706;10.384;2023-08-06T09:38:40;17.90;99.90
18934;DHT22;9599;53.706;10.384;2023-08-06T09:41:09;17.90;99.90
18934;DHT22;9599;53.706;10.384;2023-08-06T09:43:41;17.90;99.90
18934;DHT22;9599;53.706;10.384;2023-08-06T09:46:14;18.00;99.90
18934;DHT22;9599;53.706;10.384;2023-08-06T09:48:47;17.90;99.90
18934;DHT22;9599;53.706;10.384;2023-08-06T09:51:16;17.90;99.90
18934;DHT22;9599;53.706;10.384;2023-08-06T09:53:47;18.00;99.90
18934;DHT22;9599;53.706;10.384;2023-08-06T09:56:17;18.00;99.90
18934;DHT22;9599;53.706;10.384;2023-08-06T09:58:47;18.10;99.90
18934;DHT22;9599;53.706;10.384;2023-08-06T10:01:19;18.20;99.90
18934;DHT22;9599;53.706;10.384;2023-08-06T10:03:47;18.00;99.90
18934;DHT22;9599;53.706;10.384;2023-08-06T10:06:17;18.10;99.90
18934;DHT22;9599;53.706;10.384;2023-08-06T10:08:46;18.20;99.90
18934;DHT22;9599;53.706;10.384;2023-08-06T10:11:15;18.20;99.90
18934;DHT22;9599;53.706;10.384;2023-08-06T10:13:44;18.10;99.90
18934;DHT22;9599;53.706;10.384;2023-08-06T10:16:12;18.00;99.90
18934;DHT22;9599;53.706;10.384;2023-08-06T10:18:43;18.00;99.90
18934;DHT22;9599;53.706;10.384;2023-08-06T10:21:11;18.10;99.90
18934;DHT22;9599;53.706;10.384;2023-08-06T10:23:41;18.10;99.90
18934;DHT22;9599;53.706;10.384;2023-08-06T10:26:09;18.00;99.90
18934;DHT22;9599;53.706;10.384;2023-08-06T10:28:38;18.00;99.90
18934;DHT22;9599;53.706;10.384;2023-08-06T10:31:06;18.10;99.90
18934;DHT22;9599;53.706;10.384;2023-08-06T10:33:43;18.20;99.90
18934;DHT22;9599;53.706;10.384;2023-08-06T10:36:12;18.30;99.90
18934;DHT22;9599;53.706;10.384;2023-08-06T10:38:48;18.30;99.90
18934;DHT22;9599;53.706;10.384;2023-08-06T10:41:22;18.20;99.90
18934;DHT22;9599;53.706;10.384;2023-08-06T10:43:51;18.30;99.90
18934;DHT22;9599;53.706;10.384;2023-08-06T10:46:23;18.40;99.90
18934;DHT22;9599;53.706;10.384;2023-08-06T10:48:53;18.50;99.90
18934;DHT22;9599;53.706;10.384;2023-08-06T10:51:21;18.60;99.90
18934;DHT22;9599;53.706;10.384;2023-08-06T10:53:49;18.70;99.90
18934;DHT22;9599;53.706;10.384;2023-08-06T10:56:19;18.80;99.90
18934;DHT22;9599;53.706;10.384;2023-08-06T10:58:50;18.70;99.90
18934;DHT22;9599;53.706;10.384;2023-08-06T11:01:18;18.70;99.90
18934;DHT22;9599;53.706;10.384;2023-08-06T11:03:47;18.80;99.90
18934;DHT22;9599;53.706;10.384;2023-08-06T11:06:19;18.90;99.90
18934;DHT22;9599;53.706;10.384;2023-08-06T11:08:49;18.90;99.90
18934;DHT22;9599;53.706;10.384;2023-08-06T11:11:17;19.00;99.90
18934;DHT22;9599;53.706;10.384;2023-08-06T11:13:47;18.90;99.90
18934;DHT22;9599;53.706;10.384;2023-08-06T11:16:16;19.00;99.90
18934;DHT22;9599;53.706;10.384;2023-08-06T11:18:45;19.00;99.90
18934;DHT22;9599;53.706;10.384;2023-08-06T11:21:14;19.00;99.90
18934;DHT22;9599;53.706;10.384;2023-08-06T11:23:43;19.00;99.90
18934;DHT22;9599;53.706;10.384;2023-08-06T11:26:11;19.00;99.90
18934;DHT22;9599;53.706;10.384;2023-08-06T11:28:43;18.90;99.90
18934;DHT22;9599;53.706;10.384;2023-08-06T11:31:18;19.00;99.90
18934;DHT22;9599;53.706;10.384;2023-08-06T11:33:47;19.00;99.90
18934;DHT22;9599;53.706;10.384;2023-08-06T11:36:15;19.10;99.90
18934;DHT22;9599;53.706;10.384;2023-08-06T11:38:44;19.00;99.90
18934;DHT22;9599;53.706;10.384;2023-08-06T11:41:12;19.00;99.90
18934;DHT22;9599;53.706;10.384;2023-08-06T11:43:40;19.00;99.90
18934;DHT22;9599;53.706;10.384;2023-08-06T11:46:08;19.00;99.90
18934;DHT22;9599;53.706;10.384;2023-08-06T11:48:51;19.10;99.90
18934;DHT22;9599;53.706;10.384;2023-08-06T11:51:22;19.10;99.90
18934;DHT22;9599;53.706;10.384;2023-08-06T11:53:55;19.00;99.90
18934;DHT22;9599;53.706;10.384;2023-08-06T11:56:24;18.80;99.90
18934;DHT22;9599;53.706;10.384;2023-08-06T11:58:52;18.80;99.90
18934;DHT22;9599;53.706;10.384;2023-08-06T12:01:21;18.80;99.90
18934;DHT22;9599;53.706;10.384;2023-08-06T12:03:49;18.60;99.90
18934;DHT22;9599;53.706;10.384;2023-08-06T12:06:17;18.60;99.90
18934;DHT22;9599;53.706;10.384;2023-08-06T12:08:45;18.70;99.90
18934;DHT22;9599;53.706;10.384;2023-08-06T12:11:16;18.90;99.90
18934;DHT22;9599;53.706;10.384;2023-08-06T12:13:44;19.00;99.90
18934;DHT22;9599;53.706;10.384;2023-08-06T12:16:12;19.00;99.90
18934;DHT22;9599;53.706;10.384;2023-08-06T12:18:40;18.90;99.90
18934;DHT22;9599;53.706;10.384;2023-08-06T12:21:08;18.80;99.90
18934;DHT22;9599;53.706;10.384;2023-08-06T12:23:37;18.90;99.90
18934;DHT22;9599;53.706;10.384;2023-08-06T12:26:05;18.90;99.90
18934;DHT22;9599;53.706;10.384;2023-08-06T12:28:34;18.90;99.90
18934;DHT22;9599;53.706;10.384;2023-08-06T12:31:02;18.70;99.90
18934;DHT22;9599;53.706;10.384;2023-08-06T12:33:31;18.70;99.90
18934;DHT22;9599;53.706;10.384;2023-08-06T12:35:59;18.70;99.90
18934;DHT22;9599;53.706;10.384;2023-08-06T12:38:27;18.70;99.90
18934;DHT22;9599;53.706;10.384;2023-08-06T12:40:55;18.60;99.90
18934;DHT22;9599;53.706;10.384;2023-08-06T12:43:23;18.80;99.90
18934;DHT22;9599;53.706;10.384;2023-08-06T12:45:53;18.90;99.90
18934;DHT22;9599;53.706;10.384;2023-08-06T12:48:21;19.00;99.90
18934;DHT22;9599;53.706;10.384;2023-08-06T12:50:49;19.00;99.90
18934;DHT22;9599;53.706;10.384;2023-08-06T12:53:17;19.10;99.90
18934;DHT22;9599;53.706;10.384;2023-08-06T12:55:48;19.20;99.90
18934;DHT22;9599;53.706;10.384;2023-08-06T12:58:15;19.20;99.90
18934;DHT22;9599;53.706;10.384;2023-08-06T13:00:43;19.20;99.90
18934;DHT22;9599;53.706;10.384;2023-08-06T13:03:13;19.30;99.90
18934;DHT22;9599;53.706;10.384;2023-08-06T13:05:41;19.50;99.90
18934;DHT22;9599;53.706;10.384;2023-08-06T13:08:09;19.60;99.90
18934;DHT22;9599;53.706;10.384;2023-08-06T13:10:37;19.40;99.90
18934;DHT22;9599;53.706;10.384;2023-08-06T13:13:05;19.30;99.90
18934;DHT22;9599;53.706;10.384;2023-08-06T13:15:33;19.10;99.90
18934;DHT22;9599;53.706;10.384;2023-08-06T13:18:02;19.00;99.90
18934;DHT22;9599;53.706;10.384;2023-08-06T13:20:31;19.00;99.90
18934;DHT22;9599;53.706;10.384;2023-08-06T13:22:59;19.00;99.90
18934;DHT22;9599;53.706;10.384;2023-08-06T13:25:28;19.00;99.90
18934;DHT22;9599;53.706;10.384;2023-08-06T13:27:56;18.90;99.90
18934;DHT22;9599;53.706;10.384;2023-08-06T13:30:24;18.70;99.90
18934;DHT22;9599;53.706;10.384;2023-08-06T13:32:52;18.60;99.90
18934;DHT22;9599;53.706;10.384;2023-08-06T13:35:22;18.60;99.90
18934;DHT22;9599;53.706;10.384;2023-08-06T13:37:52;18.50;99.90
18934;DHT22;9599;53.706;10.384;2023-08-06T13:40:22;18.50;99.90
18934;DHT22;9599;53.706;10.384;2023-08-06T13:42:50;18.60;99.90
18934;DHT22;9599;53.706;10.384;2023-08-06T13:45:18;18.80;99.90
18934;DHT22;9599;53.706;10.384;2023-08-06T13:47:46;18.70;99.90
18934;DHT22;9599;53.706;10.384;2023-08-06T13:50:14;18.60;99.90
18934;DHT22;9599;53.706;10.384;2023-08-06T13:52:42;18.60;99.90
18934;DHT22;9599;53.706;10.384;2023-08-06T13:55:12;18.50;99.90
18934;DHT22;9599;53.706;10.384;2023-08-06T13:57:40;18.40;99.90
18934;DHT22;9599;53.706;10.384;2023-08-06T14:00:09;18.40;99.90
18934;DHT22;9599;53.706;10.384;2023-08-06T14:02:42;18.40;99.90
18934;DHT22;9599;53.706;10.384;2023-08-06T14:05:11;18.40;99.90
18934;DHT22;9599;53.706;10.384;2023-08-06T14:07:39;18.40;99.90
18934;DHT22;9599;53.706;10.384;2023-08-06T14:10:08;18.30;99.90
18934;DHT22;9599;53.706;10.384;2023-08-06T14:12:38;18.10;99.90
18934;DHT22;9599;53.706;10.384;2023-08-06T14:15:07;17.90;99.90
18934;DHT22;9599;53.706;10.384;2023-08-06T14:17:35;17.70;99.90
18934;DHT22;9599;53.706;10.384;2023-08-06T14:20:03;17.70;99.90
18934;DHT22;9599;53.706;10.384;2023-08-06T14:22:34;17.50;99.90
18934;DHT22;9599;53.706;10.384;2023-08-06T14:25:02;17.50;99.90
18934;DHT22;9599;53.706;10.384;2023-08-06T14:27:30;17.50;99.90
18934;DHT22;9599;53.706;10.384;2023-08-06T14:30:00;17.60;99.90
18934;DHT22;9599;53.706;10.384;2023-08-06T14:32:29;17.50;99.90
18934;DHT22;9599;53.706;10.384;2023-08-06T14:34:57;17.50;99.90
18934;DHT22;9599;53.706;10.384;2023-08-06T14:37:25;17.50;99.90
18934;DHT22;9599;53.706;10.384;2023-08-06T14:39:53;17.50;99.90
18934;DHT22;9599;53.706;10.384;2023-08-06T14:42:22;17.50;99.90
18934;DHT22;9599;53.706;10.384;2023-08-06T14:44:50;17.50;99.90
18934;DHT22;9599;53.706;10.384;2023-08-06T14:47:19;17.70;99.90
18934;DHT22;9599;53.706;10.384;2023-08-06T14:49:47;17.70;99.90
18934;DHT22;9599;53.706;10.384;2023-08-06T14:52:16;17.60;99.90
18934;DHT22;9599;53.706;10.384;2023-08-06T14:54:44;17.50;99.90
18934;DHT22;9599;53.706;10.384;2023-08-06T14:57:12;17.60;99.90
18934;DHT22;9599;53.706;10.384;2023-08-06T14:59:40;17.60;99.90
18934;DHT22;9599;53.706;10.384;2023-08-06T15:02:08;17.60;99.90
18934;DHT22;9599;53.706;10.384;2023-08-06T15:04:38;17.80;99.90
18934;DHT22;9599;53.706;10.384;2023-08-06T15:07:06;17.80;99.90
18934;DHT22;9599;53.706;10.384;2023-08-06T15:09:36;17.90;99.90
18934;DHT22;9599;53.706;10.384;2023-08-06T15:12:21;18.00;99.90
18934;DHT22;9599;53.706;10.384;2023-08-06T15:14:49;18.00;99.90
18934;DHT22;9599;53.706;10.384;2023-08-06T15:17:17;18.10;99.90
18934;DHT22;9599;53.706;10.384;2023-08-06T15:19:47;18.10;99.90
18934;DHT22;9599;53.706;10.384;2023-08-06T15:22:15;18.10;99.90
18934;DHT22;9599;53.706;10.384;2023-08-06T15:24:43;18.20;99.90
18934;DHT22;9599;53.706;10.384;2023-08-06T15:27:12;18.20;99.90
18934;DHT22;9599;53.706;10.384;2023-08-06T15:29:40;18.30;99.90
18934;DHT22;9599;53.706;10.384;2023-08-06T15:32:10;18.30;99.90
18934;DHT22;9599;53.706;10.384;2023-08-06T15:34:38;18.50;99.90
18934;DHT22;9599;53.706;10.384;2023-08-06T15:37:08;18.60;99.90
18934;DHT22;9599;53.706;10.384;2023-08-06T15:39:38;18.60;99.90
18934;DHT22;9599;53.706;10.384;2023-08-06T15:42:07;18.70;99.90